Oiapoque, Brazil
Current Conditions -  °F | °C
As of 6:00 AM on Wednesday 26 Nov 2014 (Local Time) from SOCA Reporting Station
Haze Haze  
Wind Chill: 75°   Ceiling: 1400
Heat Index: 75°   Visibility: 2.9mi
Dew Point: 73°   Wind: 1mph
Humidity: 94%   Direction: NA
Pressure: 29.8"   Gusts: NA
Location:  3.84°N, 51.83°W
Report Text: SOCA 260900Z AUTO VRB01KT 4700 BR FEW004/// BKN014///OVC021/// 24/23 Q1009
Loading
Personal Weather Stations






























Interactive Weather Map New forecast layout! Learn more

10-Day Weather Forecast

Advertisements
Track Severe Weather on mobile